sensor_id;sensor_type;location;lat;lon;timestamp;pressure;altitude;pressure_sealevel;temperature;humidity
63568;BME280;49715;42.386;20.434;2022-09-27T00:00:05;96402.88;;;16.16;80.77
63568;BME280;49715;42.386;20.434;2022-09-27T00:02:38;96379.34;;;16.13;80.84
63568;BME280;49715;42.386;20.434;2022-09-27T00:05:05;96385.66;;;16.19;80.45
63568;BME280;49715;42.386;20.434;2022-09-27T00:07:32;96383.66;;;16.14;80.96
63568;BME280;49715;42.386;20.434;2022-09-27T00:09:58;96406.34;;;16.17;80.72
63568;BME280;49715;42.386;20.434;2022-09-27T00:12:25;96402.25;;;16.14;81.02
63568;BME280;49715;42.386;20.434;2022-09-27T00:14:51;96398.38;;;16.17;80.78
63568;BME280;49715;42.386;20.434;2022-09-27T00:17:17;96398.97;;;16.19;80.90
63568;BME280;49715;42.386;20.434;2022-09-27T00:19:44;96371.78;;;16.10;80.98
63568;BME280;49715;42.386;20.434;2022-09-27T00:22:10;96363.00;;;16.16;80.89
63568;BME280;49715;42.386;20.434;2022-09-27T00:24:37;96355.03;;;16.16;80.73
63568;BME280;49715;42.386;20.434;2022-09-27T00:27:03;96354.81;;;16.18;80.81
63568;BME280;49715;42.386;20.434;2022-09-27T00:29:29;96358.91;;;16.20;80.77
63568;BME280;49715;42.386;20.434;2022-09-27T00:31:56;96348.69;;;16.17;81.14
63568;BME280;49715;42.386;20.434;2022-09-27T00:34:24;96347.00;;;16.23;81.00
63568;BME280;49715;42.386;20.434;2022-09-27T00:36:51;96340.06;;;16.22;81.07
63568;BME280;49715;42.386;20.434;2022-09-27T00:39:18;96328.22;;;16.18;81.24
63568;BME280;49715;42.386;20.434;2022-09-27T00:41:44;96322.09;;;16.17;81.16
63568;BME280;49715;42.386;20.434;2022-09-27T00:49:26;96323.31;;;16.21;81.15
63568;BME280;49715;42.386;20.434;2022-09-27T00:51:58;96310.66;;;16.17;81.40
63568;BME280;49715;42.386;20.434;2022-09-27T00:54:28;96327.00;;;16.20;81.22
63568;BME280;49715;42.386;20.434;2022-09-27T00:56:57;96331.09;;;16.16;81.23
63568;BME280;49715;42.386;20.434;2022-09-27T00:59:38;96341.09;;;16.21;81.27
63568;BME280;49715;42.386;20.434;2022-09-27T01:02:07;96344.75;;;16.20;81.18
63568;BME280;49715;42.386;20.434;2022-09-27T01:04:36;96337.00;;;16.18;81.16
63568;BME280;49715;42.386;20.434;2022-09-27T01:07:04;96348.25;;;16.20;81.34
63568;BME280;49715;42.386;20.434;2022-09-27T01:09:31;96347.41;;;16.20;81.43
63568;BME280;49715;42.386;20.434;2022-09-27T01:15:02;96335.59;;;16.16;81.38
63568;BME280;49715;42.386;20.434;2022-09-27T01:23:53;96323.50;;;16.20;81.47
63568;BME280;49715;42.386;20.434;2022-09-27T01:32:37;96310.31;;;16.00;81.45
63568;BME280;49715;42.386;20.434;2022-09-27T01:43:29;96308.22;;;16.09;81.64
63568;BME280;49715;42.386;20.434;2022-09-27T01:46:04;96303.31;;;16.12;81.69
63568;BME280;49715;42.386;20.434;2022-09-27T01:48:53;96295.91;;;16.14;81.65
63568;BME280;49715;42.386;20.434;2022-09-27T01:51:28;96293.72;;;16.11;81.58
63568;BME280;49715;42.386;20.434;2022-09-27T01:54:00;96295.50;;;16.17;81.58
63568;BME280;49715;42.386;20.434;2022-09-27T01:56:49;96297.56;;;16.15;81.78
63568;BME280;49715;42.386;20.434;2022-09-27T01:59:35;96308.22;;;16.15;81.67
63568;BME280;49715;42.386;20.434;2022-09-27T02:02:40;96295.13;;;16.14;81.61
63568;BME280;49715;42.386;20.434;2022-09-27T02:05:29;96280.41;;;16.11;81.51
63568;BME280;49715;42.386;20.434;2022-09-27T02:08:11;96286.94;;;16.15;81.57
63568;BME280;49715;42.386;20.434;2022-09-27T02:10:42;96283.66;;;16.13;81.75
63568;BME280;49715;42.386;20.434;2022-09-27T02:15:58;96285.13;;;16.09;81.63
63568;BME280;49715;42.386;20.434;2022-09-27T02:21:24;96288.16;;;16.13;81.43
63568;BME280;49715;42.386;20.434;2022-09-27T02:23:58;96295.75;;;16.09;81.51
63568;BME280;49715;42.386;20.434;2022-09-27T02:26:38;96293.50;;;16.13;81.34
63568;BME280;49715;42.386;20.434;2022-09-27T02:29:22;96294.31;;;16.13;81.41
63568;BME280;49715;42.386;20.434;2022-09-27T02:31:52;96278.75;;;16.10;81.52
63568;BME280;49715;42.386;20.434;2022-09-27T02:34:22;96276.09;;;16.10;81.53
63568;BME280;49715;42.386;20.434;2022-09-27T02:36:50;96277.75;;;16.11;81.53
63568;BME280;49715;42.386;20.434;2022-09-27T02:39:19;96269.16;;;16.09;81.28
63568;BME280;49715;42.386;20.434;2022-09-27T02:41:50;96277.13;;;16.16;81.41
63568;BME280;49715;42.386;20.434;2022-09-27T02:44:18;96263.84;;;16.09;81.39
63568;BME280;49715;42.386;20.434;2022-09-27T03:07:06;96252.63;;;16.07;81.33
63568;BME280;49715;42.386;20.434;2022-09-27T03:09:48;96256.69;;;16.10;81.25
63568;BME280;49715;42.386;20.434;2022-09-27T03:12:17;96260.38;;;16.09;81.22
63568;BME280;49715;42.386;20.434;2022-09-27T03:14:54;96265.09;;;16.07;81.16
63568;BME280;49715;42.386;20.434;2022-09-27T03:17:42;96261.25;;;16.03;81.42
63568;BME280;49715;42.386;20.434;2022-09-27T03:20:21;96251.66;;;16.02;81.43
63568;BME280;49715;42.386;20.434;2022-09-27T03:22:58;96247.94;;;16.03;81.69
63568;BME280;49715;42.386;20.434;2022-09-27T03:25:24;96256.53;;;16.05;81.39
63568;BME280;49715;42.386;20.434;2022-09-27T03:27:51;96244.72;;;16.01;81.53
63568;BME280;49715;42.386;20.434;2022-09-27T03:30:18;96244.72;;;16.01;81.51
63568;BME280;49715;42.386;20.434;2022-09-27T03:32:45;96248.00;;;15.96;81.95
63568;BME280;49715;42.386;20.434;2022-09-27T03:35:35;96227.38;;;15.91;81.60
63568;BME280;49715;42.386;20.434;2022-09-27T03:38:02;96221.63;;;15.94;81.30
63568;BME280;49715;42.386;20.434;2022-09-27T03:40:29;96224.09;;;15.96;81.41
63568;BME280;49715;42.386;20.434;2022-09-27T03:42:57;96217.50;;;15.99;81.59
63568;BME280;49715;42.386;20.434;2022-09-27T03:45:25;96208.34;;;15.94;81.46
63568;BME280;49715;42.386;20.434;2022-09-27T03:47:52;96210.97;;;16.01;81.60
63568;BME280;49715;42.386;20.434;2022-09-27T03:50:18;96210.34;;;15.99;81.42
63568;BME280;49715;42.386;20.434;2022-09-27T03:52:45;96195.44;;;15.98;81.54
63568;BME280;49715;42.386;20.434;2022-09-27T03:55:12;96199.53;;;16.01;81.60
63568;BME280;49715;42.386;20.434;2022-09-27T03:57:38;96204.19;;;16.05;81.53
63568;BME280;49715;42.386;20.434;2022-09-27T04:00:09;96197.88;;;16.00;81.61
63568;BME280;49715;42.386;20.434;2022-09-27T04:02:40;96203.81;;;16.02;81.72
63568;BME280;49715;42.386;20.434;2022-09-27T04:05:26;96216.47;;;16.06;81.64
63568;BME280;49715;42.386;20.434;2022-09-27T04:08:06;96203.59;;;16.03;81.65
63568;BME280;49715;42.386;20.434;2022-09-27T04:10:33;96206.63;;;16.07;81.82
63568;BME280;49715;42.386;20.434;2022-09-27T04:13:03;96210.09;;;16.07;81.65
63568;BME280;49715;42.386;20.434;2022-09-27T04:15:34;96204.84;;;16.01;81.65
63568;BME280;49715;42.386;20.434;2022-09-27T04:18:20;96215.41;;;16.07;82.09
63568;BME280;49715;42.386;20.434;2022-09-27T04:21:05;96206.25;;;16.03;81.87
63568;BME280;49715;42.386;20.434;2022-09-27T04:23:33;96204.41;;;16.04;81.79
63568;BME280;49715;42.386;20.434;2022-09-27T04:26:00;96206.84;;;16.05;81.72
63568;BME280;49715;42.386;20.434;2022-09-27T04:28:48;96210.16;;;16.01;81.63
63568;BME280;49715;42.386;20.434;2022-09-27T04:31:17;96225.66;;;16.04;81.61
63568;BME280;49715;42.386;20.434;2022-09-27T04:33:51;96224.84;;;16.03;81.61
63568;BME280;49715;42.386;20.434;2022-09-27T04:36:22;96221.16;;;16.04;81.62
63568;BME280;49715;42.386;20.434;2022-09-27T04:39:04;96216.66;;;16.05;81.74
63568;BME280;49715;42.386;20.434;2022-09-27T04:41:32;96213.19;;;16.04;81.63
63568;BME280;49715;42.386;20.434;2022-09-27T04:44:00;96214.00;;;16.05;81.74
63568;BME280;49715;42.386;20.434;2022-09-27T04:46:27;96212.53;;;16.09;81.75
63568;BME280;49715;42.386;20.434;2022-09-27T04:48:58;96205.00;;;16.06;81.63
63568;BME280;49715;42.386;20.434;2022-09-27T04:51:25;96192.56;;;16.00;81.83
63568;BME280;49715;42.386;20.434;2022-09-27T04:53:55;96210.91;;;16.08;81.73
63568;BME280;49715;42.386;20.434;2022-09-27T04:56:23;96192.38;;;16.01;81.69
63568;BME280;49715;42.386;20.434;2022-09-27T04:58:50;96199.69;;;16.06;81.70
63568;BME280;49715;42.386;20.434;2022-09-27T05:01:17;96208.84;;;16.10;81.88
63568;BME280;49715;42.386;20.434;2022-09-27T05:03:58;96200.06;;;16.09;81.69
63568;BME280;49715;42.386;20.434;2022-09-27T05:06:26;96200.88;;;16.10;81.67
63568;BME280;49715;42.386;20.434;2022-09-27T05:08:59;96196.34;;;16.17;81.73
63568;BME280;49715;42.386;20.434;2022-09-27T05:11:31;96190.63;;;16.13;81.57
63568;BME280;49715;42.386;20.434;2022-09-27T05:14:17;96192.47;;;16.13;81.53
63568;BME280;49715;42.386;20.434;2022-09-27T05:16:55;96195.72;;;16.15;81.73
63568;BME280;49715;42.386;20.434;2022-09-27T05:19:44;96190.41;;;16.15;81.48
63568;BME280;49715;42.386;20.434;2022-09-27T05:22:18;96195.91;;;16.20;81.61
63568;BME280;49715;42.386;20.434;2022-09-27T05:24:45;96198.56;;;16.20;81.65
63568;BME280;49715;42.386;20.434;2022-09-27T05:27:13;96198.78;;;16.18;81.52
63568;BME280;49715;42.386;20.434;2022-09-27T05:29:43;96211.19;;;16.25;81.68
63568;BME280;49715;42.386;20.434;2022-09-27T05:32:18;96196.50;;;16.22;81.51
63568;BME280;49715;42.386;20.434;2022-09-27T05:34:50;96209.16;;;16.27;81.69
63568;BME280;49715;42.386;20.434;2022-09-27T05:37:38;96204.06;;;16.25;81.79
63568;BME280;49715;42.386;20.434;2022-09-27T05:40:06;96201.41;;;16.25;81.76
63568;BME280;49715;42.386;20.434;2022-09-27T05:42:32;96202.84;;;16.21;82.25
63568;BME280;49715;42.386;20.434;2022-09-27T05:45:00;96197.75;;;16.19;81.83
63568;BME280;49715;42.386;20.434;2022-09-27T05:47:27;96191.78;;;16.24;81.68
63568;BME280;49715;42.386;20.434;2022-09-27T05:49:54;96187.66;;;16.28;81.55
63568;BME280;49715;42.386;20.434;2022-09-27T05:52:21;96184.41;;;16.26;81.51
63568;BME280;49715;42.386;20.434;2022-09-27T05:54:48;96195.00;;;16.33;81.56
63568;BME280;49715;42.386;20.434;2022-09-27T05:57:15;96197.81;;;16.38;81.61
63568;BME280;49715;42.386;20.434;2022-09-27T06:00:02;96192.25;;;16.39;81.67
63568;BME280;49715;42.386;20.434;2022-09-27T06:02:44;96183.13;;;16.35;81.60
63568;BME280;49715;42.386;20.434;2022-09-27T06:05:37;96183.13;;;16.35;81.98
63568;BME280;49715;42.386;20.434;2022-09-27T06:08:13;96185.31;;;16.38;81.55
63568;BME280;49715;42.386;20.434;2022-09-27T06:10:45;96178.63;;;16.36;81.42
63568;BME280;49715;42.386;20.434;2022-09-27T06:13:22;96179.03;;;16.33;81.28
63568;BME280;49715;42.386;20.434;2022-09-27T06:15:51;96195.16;;;16.38;81.38
63568;BME280;49715;42.386;20.434;2022-09-27T06:18:18;96187.41;;;16.36;81.36
63568;BME280;49715;42.386;20.434;2022-09-27T06:20:48;96197.38;;;16.41;81.39
63568;BME280;49715;42.386;20.434;2022-09-27T06:23:17;96196.13;;;16.43;81.42
63568;BME280;49715;42.386;20.434;2022-09-27T06:25:45;96191.63;;;16.44;81.66
63568;BME280;49715;42.386;20.434;2022-09-27T06:28:42;96192.22;;;16.46;81.86
63568;BME280;49715;42.386;20.434;2022-09-27T06:31:10;96206.66;;;16.57;81.74
63568;BME280;49715;42.386;20.434;2022-09-27T06:33:47;96209.25;;;16.63;81.90
63568;BME280;49715;42.386;20.434;2022-09-27T06:36:14;96205.13;;;16.67;81.87
63568;BME280;49715;42.386;20.434;2022-09-27T06:38:41;96196.94;;;16.69;82.28
63568;BME280;49715;42.386;20.434;2022-09-27T06:41:22;96187.63;;;16.85;82.13
63568;BME280;49715;42.386;20.434;2022-09-27T06:44:22;96196.94;;;16.94;81.87
63568;BME280;49715;42.386;20.434;2022-09-27T06:47:18;96201.22;;;16.95;81.73
63568;BME280;49715;42.386;20.434;2022-09-27T06:50:05;96212.59;;;17.02;81.55
63568;BME280;49715;42.386;20.434;2022-09-27T06:52:33;96213.78;;;17.06;81.32
63568;BME280;49715;42.386;20.434;2022-09-27T06:55:01;96207.66;;;17.06;81.15
63568;BME280;49715;42.386;20.434;2022-09-27T06:57:34;96197.59;;;17.08;81.45
63568;BME280;49715;42.386;20.434;2022-09-27T07:00:52;96197.59;;;17.08;81.28
63568;BME280;49715;42.386;20.434;2022-09-27T07:03:49;96193.84;;;17.15;81.28
63568;BME280;49715;42.386;20.434;2022-09-27T07:06:42;96204.41;;;17.22;81.33
63568;BME280;49715;42.386;20.434;2022-09-27T07:09:18;96209.44;;;17.30;81.25
63568;BME280;49715;42.386;20.434;2022-09-27T07:11:44;96195.53;;;17.28;80.96
63568;BME280;49715;42.386;20.434;2022-09-27T07:14:11;96187.75;;;17.27;81.07
63568;BME280;49715;42.386;20.434;2022-09-27T07:16:37;96197.97;;;17.30;80.81
63568;BME280;49715;42.386;20.434;2022-09-27T07:19:04;96192.88;;;17.28;80.71
63568;BME280;49715;42.386;20.434;2022-09-27T07:21:34;96182.13;;;17.35;80.71
63568;BME280;49715;42.386;20.434;2022-09-27T07:24:01;96172.00;;;17.43;80.90
63568;BME280;49715;42.386;20.434;2022-09-27T07:26:51;96186.78;;;17.58;80.75
63568;BME280;49715;42.386;20.434;2022-09-27T07:29:29;96194.25;;;17.67;80.39
63568;BME280;49715;42.386;20.434;2022-09-27T07:32:28;96185.38;;;17.73;80.41
63568;BME280;49715;42.386;20.434;2022-09-27T07:34:55;96194.06;;;17.81;79.65
63568;BME280;49715;42.386;20.434;2022-09-27T07:37:22;96186.31;;;17.79;79.21
63568;BME280;49715;42.386;20.434;2022-09-27T07:39:48;96180.75;;;17.81;79.31
63568;BME280;49715;42.386;20.434;2022-09-27T07:42:15;96194.44;;;17.84;79.28
63568;BME280;49715;42.386;20.434;2022-09-27T07:44:45;96185.78;;;17.89;79.16
63568;BME280;49715;42.386;20.434;2022-09-27T07:47:50;96186.50;;;17.96;79.37
63568;BME280;49715;42.386;20.434;2022-09-27T07:51:15;96179.22;;;18.03;79.19
63568;BME280;49715;42.386;20.434;2022-09-27T07:53:52;96173.31;;;18.01;78.97
63568;BME280;49715;42.386;20.434;2022-09-27T07:56:45;96164.97;;;18.09;78.85
63568;BME280;49715;42.386;20.434;2022-09-27T07:59:13;96161.59;;;18.14;78.63
63568;BME280;49715;42.386;20.434;2022-09-27T08:01:40;96148.88;;;18.16;78.80
63568;BME280;49715;42.386;20.434;2022-09-27T08:04:09;96157.22;;;18.19;78.79
63568;BME280;49715;42.386;20.434;2022-09-27T08:06:36;96161.84;;;18.24;78.72
63568;BME280;49715;42.386;20.434;2022-09-27T08:09:06;96175.22;;;18.36;78.68
63568;BME280;49715;42.386;20.434;2022-09-27T08:11:35;96163.50;;;18.37;78.55
63568;BME280;49715;42.386;20.434;2022-09-27T08:14:04;96159.91;;;18.43;78.22
63568;BME280;49715;42.386;20.434;2022-09-27T08:16:32;96156.31;;;18.49;78.40
63568;BME280;49715;42.386;20.434;2022-09-27T08:19:14;96168.06;;;18.60;78.47
63568;BME280;49715;42.386;20.434;2022-09-27T08:21:54;96175.53;;;18.69;78.39
63568;BME280;49715;42.386;20.434;2022-09-27T08:24:23;96167.94;;;18.66;78.01
63568;BME280;49715;42.386;20.434;2022-09-27T08:27:09;96159.94;;;18.66;77.59
63568;BME280;49715;42.386;20.434;2022-09-27T08:29:51;96174.09;;;18.55;77.57
63568;BME280;49715;42.386;20.434;2022-09-27T08:32:17;96150.06;;;18.55;77.83
63568;BME280;49715;42.386;20.434;2022-09-27T08:34:44;96150.28;;;18.53;77.68
63568;BME280;49715;42.386;20.434;2022-09-27T08:37:11;96152.94;;;18.53;77.72
63568;BME280;49715;42.386;20.434;2022-09-27T08:39:38;96172.69;;;18.64;77.59
63568;BME280;49715;42.386;20.434;2022-09-27T08:48:04;96143.66;;;18.68;77.52
63568;BME280;49715;42.386;20.434;2022-09-27T08:50:41;96149.75;;;18.75;77.49
63568;BME280;49715;42.386;20.434;2022-09-27T08:53:46;96160.28;;;18.82;77.24
63568;BME280;49715;42.386;20.434;2022-09-27T08:56:15;96153.81;;;18.89;77.29
63568;BME280;49715;42.386;20.434;2022-09-27T08:59:12;96165.97;;;18.97;77.07
63568;BME280;49715;42.386;20.434;2022-09-27T09:01:38;96158.75;;;18.97;76.83
63568;BME280;49715;42.386;20.434;2022-09-27T09:04:23;96161.44;;;18.97;76.84
63568;BME280;49715;42.386;20.434;2022-09-27T09:10:02;96163.28;;;19.09;76.40
63568;BME280;49715;42.386;20.434;2022-09-27T09:12:53;96154.00;;;19.11;76.21
63568;BME280;49715;42.386;20.434;2022-09-27T09:21:40;96163.72;;;19.17;75.37
63568;BME280;49715;42.386;20.434;2022-09-27T09:24:56;96149.34;;;19.18;75.16
63568;BME280;49715;42.386;20.434;2022-09-27T09:28:03;96162.41;;;19.32;74.91
63568;BME280;49715;42.386;20.434;2022-09-27T09:33:38;96143.53;;;19.50;74.65
63568;BME280;49715;42.386;20.434;2022-09-27T09:36:39;96141.69;;;19.62;74.45
63568;BME280;49715;42.386;20.434;2022-09-27T09:39:10;96133.84;;;19.72;74.42
63568;BME280;49715;42.386;20.434;2022-09-27T09:41:51;96135.00;;;19.76;73.86
63568;BME280;49715;42.386;20.434;2022-09-27T09:47:25;96135.66;;;19.84;73.45
63568;BME280;49715;42.386;20.434;2022-09-27T09:49:58;96137.94;;;19.92;73.40
63568;BME280;49715;42.386;20.434;2022-09-27T09:52:39;96135.44;;;20.02;73.21
63568;BME280;49715;42.386;20.434;2022-09-27T09:55:16;96132.22;;;20.17;73.72
63568;BME280;49715;42.386;20.434;2022-09-27T09:57:55;96137.16;;;20.42;73.15
63568;BME280;49715;42.386;20.434;2022-09-27T10:00:27;96144.22;;;20.65;72.04
63568;BME280;49715;42.386;20.434;2022-09-27T10:02:57;96124.38;;;20.82;70.74
63568;BME280;49715;42.386;20.434;2022-09-27T10:05:27;96120.88;;;20.99;69.95
63568;BME280;49715;42.386;20.434;2022-09-27T10:08:06;96115.38;;;21.11;69.32
63568;BME280;49715;42.386;20.434;2022-09-27T10:10:38;96110.53;;;21.29;69.15
63568;BME280;49715;42.386;20.434;2022-09-27T10:13:39;96102.47;;;21.51;68.55
63568;BME280;49715;42.386;20.434;2022-09-27T10:16:09;96106.69;;;21.69;67.74
63568;BME280;49715;42.386;20.434;2022-09-27T10:18:39;96115.47;;;21.87;67.46
63568;BME280;49715;42.386;20.434;2022-09-27T10:26:48;96109.69;;;22.32;65.42
63568;BME280;49715;42.386;20.434;2022-09-27T10:31:55;96110.66;;;22.53;63.63
63568;BME280;49715;42.386;20.434;2022-09-27T10:34:41;96105.53;;;22.51;63.18
63568;BME280;49715;42.386;20.434;2022-09-27T10:39:51;96113.59;;;22.51;62.22
63568;BME280;49715;42.386;20.434;2022-09-27T10:42:39;96132.38;;;22.51;62.14
63568;BME280;49715;42.386;20.434;2022-09-27T10:45:27;96122.41;;;22.47;58.18
63568;BME280;49715;42.386;20.434;2022-09-27T10:48:00;96113.03;;;22.49;61.68
63568;BME280;49715;42.386;20.434;2022-09-27T10:50:36;96111.03;;;22.34;61.08
63568;BME280;49715;42.386;20.434;2022-09-27T10:53:34;96109.91;;;22.25;61.25
63568;BME280;49715;42.386;20.434;2022-09-27T10:56:20;96124.66;;;22.23;61.33
63568;BME280;49715;42.386;20.434;2022-09-27T10:58:50;96121.16;;;22.22;61.56
63568;BME280;49715;42.386;20.434;2022-09-27T11:01:18;96133.03;;;22.31;61.15
63568;BME280;49715;42.386;20.434;2022-09-27T11:04:05;96125.50;;;22.28;60.81
63568;BME280;49715;42.386;20.434;2022-09-27T11:06:34;96129.94;;;22.13;60.89
63568;BME280;49715;42.386;20.434;2022-09-27T11:09:26;96120.97;;;22.02;60.85
63568;BME280;49715;42.386;20.434;2022-09-27T11:12:11;96140.44;;;21.92;60.77
63568;BME280;49715;42.386;20.434;2022-09-27T11:14:38;96134.09;;;21.76;61.98
63568;BME280;49715;42.386;20.434;2022-09-27T11:17:16;96143.88;;;21.60;61.78
63568;BME280;49715;42.386;20.434;2022-09-27T11:20:03;96134.53;;;21.41;62.15
63568;BME280;49715;42.386;20.434;2022-09-27T11:31:30;96115.09;;;21.78;62.04
63568;BME280;49715;42.386;20.434;2022-09-27T11:34:33;96121.63;;;22.14;59.58
63568;BME280;49715;42.386;20.434;2022-09-27T11:40:13;96103.34;;;22.85;58.68
63568;BME280;49715;42.386;20.434;2022-09-27T11:51:43;96116.97;;;23.21;50.54
63568;BME280;49715;42.386;20.434;2022-09-27T11:57:29;96107.25;;;23.10;53.30
63568;BME280;49715;42.386;20.434;2022-09-27T12:00:22;96132.47;;;22.99;50.87
63568;BME280;49715;42.386;20.434;2022-09-27T12:03:13;96149.25;;;22.84;53.78
63568;BME280;49715;42.386;20.434;2022-09-27T12:06:11;96125.06;;;22.42;50.22
63568;BME280;49715;42.386;20.434;2022-09-27T12:09:07;96132.81;;;22.06;54.05
63568;BME280;49715;42.386;20.434;2022-09-27T12:12:24;96133.19;;;21.66;54.85
63568;BME280;49715;42.386;20.434;2022-09-27T12:14:58;96148.94;;;21.35;55.90
63568;BME280;49715;42.386;20.434;2022-09-27T12:18:01;96141.97;;;20.95;55.92
63568;BME280;49715;42.386;20.434;2022-09-27T12:20:31;96132.69;;;20.64;56.66
63568;BME280;49715;42.386;20.434;2022-09-27T12:23:06;96153.53;;;20.45;57.08
63568;BME280;49715;42.386;20.434;2022-09-27T12:26:18;96145.88;;;20.20;57.85
63568;BME280;49715;42.386;20.434;2022-09-27T12:31:56;96153.59;;;19.71;58.56
63568;BME280;49715;42.386;20.434;2022-09-27T12:35:03;96153.88;;;19.58;56.96
63568;BME280;49715;42.386;20.434;2022-09-27T12:37:43;96131.81;;;19.79;58.31
63568;BME280;49715;42.386;20.434;2022-09-27T12:40:18;96146.41;;;20.17;57.55
63568;BME280;49715;42.386;20.434;2022-09-27T12:46:07;96142.84;;;20.45;56.88
63568;BME280;49715;42.386;20.434;2022-09-27T12:51:20;96136.75;;;20.67;56.18
63568;BME280;49715;42.386;20.434;2022-09-27T13:02:49;96134.56;;;21.68;53.16
63568;BME280;49715;42.386;20.434;2022-09-27T13:13:55;96128.19;;;23.08;50.73
63568;BME280;49715;42.386;20.434;2022-09-27T13:16:23;96127.75;;;23.31;51.10
63568;BME280;49715;42.386;20.434;2022-09-27T13:18:59;96116.00;;;23.48;48.99
63568;BME280;49715;42.386;20.434;2022-09-27T13:24:46;96111.25;;;23.85;49.70
63568;BME280;49715;42.386;20.434;2022-09-27T13:27:36;96102.94;;;23.92;49.21
63568;BME280;49715;42.386;20.434;2022-09-27T13:32:34;96103.47;;;24.04;48.21
63568;BME280;49715;42.386;20.434;2022-09-27T13:35:21;96102.38;;;24.05;46.84
63568;BME280;49715;42.386;20.434;2022-09-27T13:38:20;96116.91;;;23.94;46.92
63568;BME280;49715;42.386;20.434;2022-09-27T13:40:49;96131.13;;;23.69;47.83
63568;BME280;49715;42.386;20.434;2022-09-27T13:46:06;96104.38;;;23.37;47.76
63568;BME280;49715;42.386;20.434;2022-09-27T13:51:45;96136.81;;;22.73;46.19
63568;BME280;49715;42.386;20.434;2022-09-27T13:57:00;96122.22;;;22.21;48.64
63568;BME280;49715;42.386;20.434;2022-09-27T13:59:44;96106.22;;;22.04;48.07
63568;BME280;49715;42.386;20.434;2022-09-27T14:02:38;96136.78;;;22.03;48.82
63568;BME280;49715;42.386;20.434;2022-09-27T14:05:11;96131.03;;;21.90;48.52
63568;BME280;49715;42.386;20.434;2022-09-27T14:07:45;96155.03;;;22.01;48.90
63568;BME280;49715;42.386;20.434;2022-09-27T14:10:19;96158.13;;;22.15;48.74
63568;BME280;49715;42.386;20.434;2022-09-27T14:12:50;96122.53;;;22.30;48.56
63568;BME280;49715;42.386;20.434;2022-09-27T14:15:29;96119.72;;;22.47;46.70
63568;BME280;49715;42.386;20.434;2022-09-27T14:17:58;96103.75;;;22.67;48.48
63568;BME280;49715;42.386;20.434;2022-09-27T14:20:49;96134.16;;;22.78;47.23
63568;BME280;49715;42.386;20.434;2022-09-27T14:23:49;96091.75;;;22.80;47.55
63568;BME280;49715;42.386;20.434;2022-09-27T14:26:26;96123.03;;;22.96;46.40
63568;BME280;49715;42.386;20.434;2022-09-27T14:28:53;96098.63;;;23.08;47.50
63568;BME280;49715;42.386;20.434;2022-09-27T14:31:27;96111.19;;;22.97;47.32
63568;BME280;49715;42.386;20.434;2022-09-27T14:34:07;96091.44;;;22.71;46.26
63568;BME280;49715;42.386;20.434;2022-09-27T14:36:37;96089.88;;;22.38;46.63
63568;BME280;49715;42.386;20.434;2022-09-27T14:39:31;96083.13;;;22.30;46.49
63568;BME280;49715;42.386;20.434;2022-09-27T14:42:04;96090.13;;;22.36;47.06
63568;BME280;49715;42.386;20.434;2022-09-27T14:44:31;96071.13;;;22.48;47.02
63568;BME280;49715;42.386;20.434;2022-09-27T14:49:51;96056.41;;;22.51;43.50
63568;BME280;49715;42.386;20.434;2022-09-27T14:52:28;96050.84;;;22.68;45.55
63568;BME280;49715;42.386;20.434;2022-09-27T14:54:58;96056.53;;;22.76;46.58
63568;BME280;49715;42.386;20.434;2022-09-27T14:57:28;96066.25;;;22.87;45.85
63568;BME280;49715;42.386;20.434;2022-09-27T14:59:58;96093.47;;;22.96;46.25
63568;BME280;49715;42.386;20.434;2022-09-27T15:02:29;96081.63;;;22.92;45.82
63568;BME280;49715;42.386;20.434;2022-09-27T15:05:00;96072.94;;;22.80;45.95
63568;BME280;49715;42.386;20.434;2022-09-27T15:07:27;96079.03;;;22.65;45.43
63568;BME280;49715;42.386;20.434;2022-09-27T15:09:55;96088.88;;;22.49;45.50
63568;BME280;49715;42.386;20.434;2022-09-27T15:12:24;96085.78;;;22.25;45.34
63568;BME280;49715;42.386;20.434;2022-09-27T15:14:53;96098.16;;;22.04;45.61
63568;BME280;49715;42.386;20.434;2022-09-27T15:17:23;96103.97;;;21.91;45.75
63568;BME280;49715;42.386;20.434;2022-09-27T15:25:55;96134.59;;;21.46;45.75
63568;BME280;49715;42.386;20.434;2022-09-27T15:28:05;96114.34;;;21.33;46.30
63568;BME280;49715;42.386;20.434;2022-09-27T15:30:40;96123.28;;;21.22;46.36
63568;BME280;49715;42.386;20.434;2022-09-27T15:33:21;96109.22;;;21.10;46.00
63568;BME280;49715;42.386;20.434;2022-09-27T15:35:51;96130.78;;;21.20;46.71
63568;BME280;49715;42.386;20.434;2022-09-27T15:41:03;96143.31;;;21.37;47.44
63568;BME280;49715;42.386;20.434;2022-09-27T15:48:40;96126.31;;;21.48;47.91
63568;BME280;49715;42.386;20.434;2022-09-27T15:51:45;96135.44;;;21.30;47.20
63568;BME280;49715;42.386;20.434;2022-09-27T15:54:12;96137.31;;;21.07;47.79
63568;BME280;49715;42.386;20.434;2022-09-27T15:56:40;96142.72;;;20.91;47.75
63568;BME280;49715;42.386;20.434;2022-09-27T15:59:18;96154.22;;;20.69;47.49
63568;BME280;49715;42.386;20.434;2022-09-27T16:01:52;96144.31;;;20.53;47.88
63568;BME280;49715;42.386;20.434;2022-09-27T16:04:20;96149.72;;;20.41;48.16
63568;BME280;49715;42.386;20.434;2022-09-27T16:06:47;96157.72;;;20.24;48.28
63568;BME280;49715;42.386;20.434;2022-09-27T16:09:19;96160.16;;;20.09;48.38
63568;BME280;49715;42.386;20.434;2022-09-27T16:11:46;96159.41;;;19.97;48.36
63568;BME280;49715;42.386;20.434;2022-09-27T16:14:13;96148.94;;;19.78;48.84
63568;BME280;49715;42.386;20.434;2022-09-27T16:16:45;96155.53;;;19.76;48.93
63568;BME280;49715;42.386;20.434;2022-09-27T16:19:12;96148.53;;;19.58;49.25
63568;BME280;49715;42.386;20.434;2022-09-27T16:21:40;96170.38;;;19.55;49.30